• Join FlightAware (Why Join?)
  • Login
  • US Flag 
03:20AM EDT


 

Airport Tracker/Info


-or-


 

Live Flight TrackerFlight Track Log ✈ AFL150 ✈ 03-Nov-2013 ✈ UUEE / SVO - MUHA / HAV

Flight Track Log - Related Links

Times and Time Zones

All times are in EST time to prevent confusion due to time zone crossing. See the AFL150 flight status page for this flight to view local times or setup timezone preferences in your user account.

Time Position Orientation Groundspeed Altitude Reporting Facility
EST Latitude Longitude Course Direction KTS MPH feet Rate Location/Type
04:42AM 55.9620 37.3550 254° West 178 205 2,400  Level FlightAware
04:43AM 55.9540 37.2980 256° West 182 209 3,700 1,920 Climbing FlightAware
04:44AM 55.9460 37.2410 256° West 193 222 4,900 1,380 Climbing FlightAware
04:44AM 55.9490 37.1800 275° West 233 268 5,400 1,260 Climbing FlightAware
04:45AM 55.9560 37.1080 280° West 262 302 6,400 1,920 Climbing FlightAware
04:45AM 55.9640 37.0430 282° West 273 314 7,500 2,400 Climbing FlightAware
04:46AM 55.9760 36.9530 283° West 280 322 9,300 2,580 Climbing FlightAware
04:46AM 55.9830 36.8950 282° West 279 321 10,400 2,040 Climbing FlightAware
04:47AM 55.9950 36.7910 282° West 304 350 11,700 1,440 Climbing FlightAware
04:48AM 56.0040 36.7160 282° West 333 383 12,200 1,080 Climbing FlightAware
04:48AM 56.0130 36.6450 283° West 356 410 12,700 1,500 Climbing FlightAware
04:49AM 56.0250 36.5430 282° West 371 427 13,700 1,860 Climbing FlightAware
04:49AM 56.0400 36.4180 282° West 384 442 15,100 2,040 Climbing FlightAware
04:50AM 56.0550 36.2940 282° West 394 453 16,500 2,100 Climbing FlightAware
04:51AM 56.0700 36.1640 282° West 403 464 17,900 1,980 Climbing FlightAware
04:51AM 56.0860 36.0310 282° West 410 472 19,200 1,860 Climbing FlightAware
04:52AM 56.1020 35.8940 282° West 418 481 20,400 1,740 Climbing FlightAware
04:53AM 56.1140 35.7890 282° West 423 487 21,300 1,680 Climbing FlightAware
04:53AM 56.1300 35.6400 281° West 429 494 22,600 1,740 Climbing FlightAware
04:54AM 56.1490 35.4720 282° West 434 499 24,000 1,740 Climbing FlightAware
04:55AM 56.1660 35.3180 281° West 438 504 25,300 1,680 Climbing FlightAware
04:56AM 56.1840 35.1540 281° West 437 503 26,600 1,800 Climbing FlightAware
04:56AM 56.1970 35.0310 281° West 431 496 27,800 1,860 Climbing FlightAware
04:57AM 56.2110 34.8970 281° West 427 491 28,900 1,500 Climbing FlightAware
04:58AM 56.2270 34.7440 281° West 426 490 29,900 840 Climbing FlightAware
04:58AM 56.2400 34.6240 281° West 428 493 30,000 60 Climbing FlightAware
04:59AM 56.2530 34.4950 280° West 426 490 30,000  Level FlightAware
04:59AM 56.2640 34.3910 281° West 426 490 30,000  Level FlightAware
05:00AM 56.2770 34.2590 280° West 424 488 30,000  Level FlightAware
05:01AM 56.2910 34.1160 280° West 424 488 30,000  Level FlightAware
05:01AM 56.3030 33.9920 280° West 424 488 30,000  Level FlightAware
05:02AM 56.3170 33.8530 280° West 425 489 30,000  Level FlightAware
05:02AM 56.3290 33.7320 280° West 426 490 30,000  Level FlightAware
05:03AM 56.3400 33.6080 279° West 426 490 30,000  Level FlightAware
05:04AM 56.3520 33.4900 280° West 426 490 30,000  Level FlightAware
05:04AM 56.3620 33.3840 280° West 426 490 30,000  Level FlightAware
05:05AM 56.3760 33.2250 279° West 426 490 30,000  Level FlightAware
05:05AM 56.3870 33.1010 279° West 427 491 30,000  Level FlightAware
05:06AM 56.4000 32.9620 280° West 427 491 30,000  Level FlightAware
05:07AM 56.4120 32.8210 279° West 428 493 30,000  Level FlightAware
05:07AM 56.4230 32.6970 279° West 429 494 30,000  Level FlightAware
05:08AM 56.4370 32.5400 279° West 430 495 30,000  Level FlightAware
05:09AM 56.4450 32.4470 279° West 430 495 30,000  Level FlightAware
05:10AM 56.4590 32.2590 278° West 430 495 30,000  Level FlightAware
05:10AM 56.4680 32.1500 279° West 430 495 30,000  Level FlightAware
05:11AM 56.4780 32.0130 278° West 430 495 30,000  Level FlightAware
05:12AM 56.4870 31.9040 279° West 430 495 30,000  Level FlightAware
05:12AM 56.4950 31.7950 278° West 430 495 30,000  Level FlightAware
05:13AM 56.5040 31.6860 279° West 430 495 30,000  Level FlightAware
05:13AM 56.5120 31.5760 278° West 430 495 30,000  Level FlightAware
05:15AM 56.5420 31.2300 279° West 367 422 30,000  Level FlightAware
05:16AM 56.6520 30.8620 299° West 436 502 30,000  Level FlightAware
05:17AM 56.6960 30.7670 310° West 436 502 30,000  Level FlightAware
05:17AM 56.7470 30.6410 306° West 436 502 30,000  Level FlightAware
05:18AM 56.7970 30.5080 305° West 437 503 30,000  Level FlightAware
05:19AM 56.8290 30.4220 304° West 436 502 30,000  Level FlightAware
05:20AM 56.8460 30.3750 303° West 436 502 30,000  Level FlightAware
05:21AM 56.9760 30.0210 304° West 434 499 30,000  Level FlightAware
05:21AM 57.0160 29.9100 304° West 432 497 30,000  Level FlightAware
05:22AM 57.0400 29.8440 304° West 432 497 30,000  Level FlightAware
05:23AM 57.0900 29.7070 304° West 432 497 30,000  Level FlightAware
05:23AM 57.1450 29.5520 303° West 431 496 30,000  Level FlightAware
05:24AM 57.1930 29.4160 303° West 430 495 30,000  Level FlightAware
05:25AM 57.2380 29.2890 303° West 430 495 30,000  Level FlightAware
05:25AM 57.2780 29.1770 303° West 430 495 30,000  Level FlightAware
05:26AM 57.3140 29.0740 303° West 431 496 30,000  Level FlightAware
05:27AM 57.3540 28.9610 303° West 431 496 30,000  Level FlightAware
05:27AM 57.3810 28.8830 303° West 431 496 30,000  Level FlightAware
05:28AM 57.4590 28.6570 303° West 432 497 30,000  Level FlightAware
05:29AM 57.5030 28.5290 303° West 431 496 30,000  Level FlightAware
05:30AM 57.5430 28.4140 303° West 431 496 30,000  Level FlightAware
05:30AM 57.6030 28.2370 302° West 430 495 30,000  Level FlightAware
05:31AM 57.6400 28.1280 302° West 430 495 30,000  Level FlightAware
05:32AM 57.6740 28.0260 302° West 430 495 30,000  Level FlightAware
05:32AM 57.7040 27.9370 302° West 430 495 30,000  Level FlightAware
05:33AM 57.7510 27.7960 302° West 429 494 30,000  Level FlightAware
05:33AM 57.7870 27.6870 302° West 429 494 30,000  Level FlightAware
05:34AM 57.8290 27.5590 302° West 427 491 30,000  Level FlightAware
05:35AM 57.8580 27.4250 292° West 424 488 30,000  Level FlightAware
05:35AM 57.8860 27.2810 290° West 424 488 30,000  Level FlightAware
05:36AM 57.9120 27.1520 291° West 424 488 30,000  Level FlightAware
05:37AM 57.9350 27.0390 291° West 424 488 30,000  Level FlightAware
05:37AM 57.9640 26.8960 291° West 424 488 30,000  Level FlightAware
05:38AM 57.9960 26.7350 291° West 425 489 30,000  Level FlightAware
05:39AM 58.0280 26.5740 291° West 426 490 30,000  Level FlightAware
05:39AM 58.0540 26.4400 290° West 425 489 30,000  Level FlightAware
05:40AM 58.0790 26.3110 290° West 425 489 30,000  Level FlightAware
05:41AM 58.1040 26.1830 290° West 426 490 30,000  Level FlightAware
05:41AM 58.1240 26.0750 289° West 427 491 30,000  Level FlightAware
05:42AM 58.1520 25.9310 290° West 427 491 30,000  Level FlightAware
05:43AM 58.1820 25.7700 290° West 427 491 30,000  Level FlightAware
05:43AM 58.2110 25.6160 290° West 427 491 30,000  Level FlightAware
05:44AM 58.2420 25.4490 289° West 427 491 30,000  Level FlightAware
05:45AM 58.2680 25.3060 289° West 426 490 30,000  Level FlightAware
05:46AM 58.3050 25.1050 289° West 424 488 30,000  Level FlightAware
05:46AM 58.3290 24.9670 288° West 423 487 30,000  Level FlightAware
05:47AM 58.3530 24.8390 290° West 421 484 30,000  Level FlightAware
05:48AM 58.3770 24.7010 288° West 419 482 30,000  Level FlightAware
05:49AM 58.4140 24.4900 289° West 418 481 30,000  Level FlightAware
05:49AM 58.4320 24.3840 288° West 416 479 30,000  Level FlightAware
05:50AM 58.4510 24.2520 285° West 415 478 30,000  Level FlightAware
05:51AM 58.4730 24.1080 286° West 414 476 30,000  Level FlightAware
05:51AM 58.4910 23.9870 286° West 414 476 30,000  Level FlightAware
05:52AM 58.5180 23.8060 286° West 414 476 30,000  Level FlightAware
05:53AM 58.5400 23.6580 286° West 414 476 30,000  Level FlightAware
05:53AM 58.5560 23.5440 285° West 414 476 30,000  Level FlightAware
05:54AM 58.5870 23.3330 286° West 414 476 30,000  Level FlightAware
05:55AM 58.6250 23.0630 285° West 414 476 30,000  Level FlightAware
05:56AM 58.6430 22.9400 286° West 414 476 30,000  Level FlightAware
05:57AM 58.6610 22.8080 285° West 413 475 30,000  Level FlightAware
05:57AM 58.6800 22.6690 285° West 413 475 30,000  Level FlightAware
05:59AM 58.7150 22.4110 285° West 414 476 30,000  Level FlightAware
05:59AM 58.7310 22.2960 285° West 414 476 30,000  Level FlightAware
06:00AM 58.7510 22.1460 284° West 414 476 30,000  Level FlightAware
06:00AM 58.7660 22.0300 284° West 415 478 30,000  Level FlightAware
06:01AM 58.7890 21.8560 284° West 416 479 30,000  Level FlightAware
06:02AM 58.8146 21.6873 286° West 417 480 30,000  Level FlightAware ADS-B
06:03AM 58.8371 21.5586 289° West 422 486 30,000  Level FlightAware ADS-B
06:03AM 58.8595 21.4259 288° West 422 486 30,000  Level FlightAware ADS-B
06:04AM 58.8904 21.2354 287° West 422 486 30,000  Level FlightAware ADS-B
06:05AM 58.9124 21.0978 287° West 420 483 30,000  Level FlightAware ADS-B
06:05AM 58.9308 20.9828 287° West 421 484 30,000  Level FlightAware ADS-B
06:06AM 58.9480 20.8757 287° West 424 488 30,000  Level FlightAware ADS-B
06:06AM 58.9662 20.7644 288° West 425 489 30,000  Level FlightAware ADS-B
06:07AM 58.9838 20.6554 287° West 425 489 30,000  Level FlightAware ADS-B
06:07AM 59.0011 20.5480 287° West 423 487 30,000  Level FlightAware ADS-B
06:08AM 59.0194 20.4332 287° West 424 488 30,000  Level FlightAware ADS-B
06:08AM 59.0419 20.2909 287° West 424 488 30,000  Level FlightAware ADS-B
06:09AM 59.0592 20.1813 287° West 423 487 30,000  Level FlightAware ADS-B
06:09AM 59.0760 20.0736 287° West 424 488 30,000  Level FlightAware ADS-B
06:10AM 59.0931 19.9628 287° West 424 488 30,000  Level FlightAware ADS-B
06:10AM 59.1098 19.8548 287° West 425 489 30,000  Level FlightAware ADS-B
06:11AM 59.1328 19.7046 287° West 426 490 30,000  Level FlightAware ADS-B
06:12AM 59.1547 19.5596 286° West 425 489 30,000  Level FlightAware ADS-B
06:12AM 59.1719 19.4453 286° West 426 490 30,000  Level FlightAware ADS-B
06:13AM 59.1935 19.3011 286° West 428 493 30,000  Level FlightAware ADS-B
06:13AM 59.2105 19.1863 286° West 428 493 30,000  Level FlightAware ADS-B
06:14AM 59.2320 19.0402 286° West 431 496 30,000  Level FlightAware ADS-B
06:15AM 59.2485 18.9269 286° West 431 496 30,000  Level FlightAware ADS-B
06:15AM 59.2699 18.7788 286° West 432 497 30,000  Level FlightAware ADS-B
06:16AM 59.2864 18.6647 286° West 433 498 30,000  Level FlightAware ADS-B
06:16AM 59.3074 18.5166 286° West 432 497 30,000  Level FlightAware ADS-B
06:17AM 59.3237 18.4007 285° West 432 497 30,000  Level FlightAware ADS-B
06:17AM 59.3396 18.2875 285° West 433 498 30,000  Level FlightAware ADS-B
06:18AM 59.3603 18.1384 285° West 432 497 30,000  Level FlightAware ADS-B
06:19AM 59.3762 18.0232 285° West 433 498 30,000  Level FlightAware ADS-B
06:19AM 59.3915 17.9118 285° West 433 498 30,000  Level FlightAware ADS-B
06:20AM 59.4120 17.7601 285° West 434 499 30,000  Level FlightAware ADS-B
06:20AM 59.4271 17.6480 285° West 435 501 30,000  Level FlightAware ADS-B
06:21AM 59.4471 17.4980 285° West 435 501 30,000  Level FlightAware ADS-B
06:21AM 59.4624 17.3825 285° West 435 501 30,000  Level FlightAware ADS-B
06:22AM 59.4832 17.2238 285° West 435 501 30,000  Level FlightAware ADS-B
06:23AM 59.5033 17.0696 284° West 435 501 30,000  Level FlightAware ADS-B
06:23AM 59.5182 16.9529 284° West 436 502 30,000  Level FlightAware ADS-B
06:24AM 59.5328 16.8384 284° West 437 503 30,000  Level FlightAware ADS-B
06:24AM 59.5479 16.7194 284° West 437 503 30,000  Level FlightAware ADS-B
06:25AM 59.5664 16.5719 284° West 439 505 30,000  Level FlightAware ADS-B
06:26AM 59.5911 16.3723 284° West 441 507 30,000  Level FlightAware ADS-B
06:26AM 59.6070 16.2450 284° West 442 509 30,000  Level FlightAware
06:27AM 59.6250 16.0930 283° West 445 512 30,000  Level FlightAware
06:28AM 59.6430 15.9460 284° West 447 514 30,000  Level FlightAware
06:28AM 59.6600 15.8010 283° West 446 513 30,000  Level FlightAware
06:29AM 59.6820 15.6110 283° West 445 512 30,000  Level FlightAware
06:30AM 59.7000 15.4580 283° West 445 512 30,000  Level FlightAware
06:30AM 59.7190 15.2940 283° West 444 511 30,000  Level FlightAware
06:31AM 59.7290 15.2020 282° West 443 510 30,000  Level FlightAware
06:31AM 59.7470 15.0470 283° West 442 509 30,000  Level FlightAware
06:32AM 59.7650 14.8840 282° West 442 509 30,000  Level FlightAware
06:33AM 59.7820 14.7320 283° West 441 507 30,000  Level FlightAware
06:33AM 59.7980 14.5850 282° West 439 505 30,000  Level FlightAware
06:34AM 59.8130 14.4400 282° West 439 505 30,000  Level FlightAware
06:35AM 59.8380 14.2080 282° West 439 505 30,000  Level FlightAware
06:35AM 59.8530 14.0640 282° West 440 506 30,000  Level FlightAware
06:36AM 59.8750 13.8450 281° West 440 506 30,000  Level FlightAware
06:37AM 59.8890 13.7140 282° West 441 507 30,000  Level FlightAware
06:38AM 59.9040 13.5560 281° West 443 510 30,000  Level FlightAware
06:39AM 59.9320 13.3140 283° West 454 522 30,000  Level FlightAware
06:39AM 59.9540 13.1740 287° West 454 522 30,000  Level FlightAware
06:40AM 59.9810 12.9890 286° West 454 522 30,000  Level FlightAware
06:41AM 60.0060 12.8150 286° West 457 526 30,000  Level FlightAware
06:41AM 60.0310 12.6310 285° West 461 531 30,000  Level FlightAware
06:42AM 60.0520 12.4890 287° West 464 534 30,000  Level FlightAware
06:43AM 60.0910 12.2190 286° West 469 540 30,000  Level FlightAware
06:44AM 60.1130 12.0620 286° West 471 542 30,000  Level FlightAware
06:45AM 60.1410 11.8630 286° West 474 545 30,000  Level FlightAware
06:45AM 60.1630 11.7070 286° West 475 547 30,000  Level FlightAware
06:46AM 60.1840 11.5540 285° West 476 548 30,000  Level FlightAware
06:47AM 60.2190 11.2940 285° West 475 547 30,000  Level FlightAware
06:47AM 60.2430 11.1160 285° West 477 549 30,000  Level FlightAware
06:48AM 60.2620 10.9690 285° West 478 550 30,000  Level FlightAware
06:49AM 60.2840 10.7970 285° West 477 549 30,000  Level FlightAware
06:49AM 60.3080 10.6160 285° West 478 550 30,000  Level FlightAware
06:50AM 60.3300 10.4390 284° West 478 550 30,000  Level FlightAware
06:51AM 60.3500 10.2830 285° West 478 550 30,000  Level FlightAware
06:52AM 60.3840 10.0130 284° West 479 551 30,000  Level FlightAware
06:52AM 60.4060 9.8300 284° West 478 550 30,000  Level FlightAware
06:53AM 60.4240 9.6820 284° West 480 552 30,000  Level FlightAware
06:54AM 60.4440 9.5110 283° West 481 554 30,000  Level FlightAware
06:54AM 60.4630 9.3550 284° West 482 555 30,000  Level FlightAware
06:55AM 60.4820 9.1950 284° West 482 555 30,000  Level FlightAware
06:55AM 60.4980 9.0510 283° West 482 555 30,000  Level FlightAware
06:56AM 60.5160 8.8960 283° West 482 555 30,000  Level FlightAware
06:57AM 60.5330 8.7440 283° West 481 554 30,000  Level FlightAware
06:57AM 60.5570 8.5360 283° West 480 552 30,000  Level FlightAware
06:58AM 60.5730 8.3880 282° West 480 552 30,000  Level FlightAware
06:59AM 60.5920 8.2130 283° West 481 554 30,000  Level FlightAware
06:59AM 60.6060 8.0850 283° West 480 552 30,000  Level FlightAware
07:00AM 60.6270 7.8830 282° West 482 555 30,000  Level FlightAware
07:01AM 60.6460 7.7040 282° West 482 555 30,000  Level FlightAware
07:02AM 60.6773 7.4008 282° West 482 555 30,000  Level FlightAware ADS-B (EGBP)
07:02AM 60.6908 7.2677 282° West 481 554 30,000  Level FlightAware ADS-B (EGBP)
07:03AM 60.7083 7.0932 282° West 481 554 30,000  Level FlightAware ADS-B (EGBP)
07:03AM 60.7213 6.9593 281° West 482 555 30,000  Level FlightAware ADS-B (EGBP)
07:04AM 60.7343 6.8263 281° West 484 557 30,000  Level FlightAware ADS-B (EGBP)
07:04AM 60.7474 6.6918 281° West 485 558 30,000  Level FlightAware ADS-B (EGBP)
07:05AM 60.7605 6.5537 281° West 484 557 30,000  Level FlightAware ADS-B (EGBP)
07:05AM 60.7767 6.3823 281° West 483 556 30,000  Level FlightAware ADS-B (EGBP)
07:06AM 60.7891 6.2491 281° West 482 555 30,000  Level FlightAware ADS-B (EGBP)
07:07AM 60.8059 6.0648 281° West 481 554 30,000  Level FlightAware ADS-B (EGBP)
07:07AM 60.8180 5.9303 281° West 480 552 30,000  Level FlightAware ADS-B (EGBP)
07:08AM 60.8341 5.7505 280° West 478 550 30,000  Level FlightAware ADS-B (EGBP)
07:09AM 60.8530 5.5350 280° West 476 548 30,000  Level FlightAware
07:09AM 60.8680 5.3600 280° West 474 545 30,000  Level FlightAware
07:10AM 60.8850 5.1660 280° West 474 545 30,000  Level FlightAware
07:11AM 60.8980 5.0050 279° West 475 547 30,000  Level FlightAware
07:11AM 60.9090 4.8650 279° West 476 548 30,000  Level FlightAware
07:12AM 60.9270 4.6460 280° West 477 549 30,000  Level FlightAware
07:13AM 60.9390 4.4900 279° West 478 550 30,000  Level FlightAware
07:13AM 60.9550 4.2900 279° West 478 550 30,000  Level FlightAware
07:14AM 60.9650 4.1630 279° West 478 550 30,000  Level FlightAware
07:14AM 60.9750 4.0180 278° West 477 549 30,000  Level FlightAware
07:15AM 60.9860 3.8760 279° West 477 549 30,000  Level FlightAware
07:15AM 60.9980 3.7170 279° West 477 549 30,000  Level FlightAware
07:16AM 61.0100 3.5450 278° West 476 548 30,000  Level FlightAware
07:17AM 61.0250 3.3400 279° West 475 547 30,000  Level FlightAware
07:18AM 61.0380 3.1470 278° West 475 547 30,000  Level FlightAware
07:18AM 61.0490 2.9810 278° West 475 547 30,000  Level FlightAware
07:19AM 61.0610 2.8050 278° West 474 545 30,000  Level FlightAware
07:20AM 61.0730 2.6200 278° West 473 544 30,000  Level FlightAware
07:20AM 61.0850 2.4270 277° West 472 543 30,000  Level FlightAware
07:21AM 61.0940 2.2750 277° West 471 542 30,000  Level FlightAware
07:22AM 61.1080 2.0430 277° West 470 541 30,000  Level FlightAware
07:22AM 61.1200 1.8490 277° West 470 541 30,000  Level FlightAware
07:23AM 61.1310 1.6590 277° West 470 541 30,000  Level FlightAware
07:24AM 61.1420 1.4550 276° West 470 541 30,000  Level FlightAware
07:25AM 61.1540 1.2420 277° West 468 539 30,000  Level FlightAware
07:25AM 61.1610 1.1080 276° West 467 537 30,000  Level FlightAware
07:26AM 61.1680 0.9720 276° West 467 537 30,000  Level FlightAware
07:26AM 61.1770 0.7980 276° West 467 537 30,000  Level FlightAware
07:27AM 61.1840 0.6440 275° West 467 537 30,000  Level FlightAware
07:28AM 61.1940 0.4450 276° West 467 537 30,000  Level FlightAware
07:28AM 61.2010 0.2920 275° West 467 537 30,000  Level FlightAware
07:29AM 61.2090 0.1100 275° West 467 537 30,000  Level FlightAware
07:30AM 61.2330 -0.0800 285° West 464 534 30,000  Level FlightAware
07:30AM 61.2590 -0.2030 294° West 464 534 30,000  Level FlightAware
07:31AM 61.2900 -0.3380 296° West 463 533 30,000  Level FlightAware
07:32AM 61.3360 -0.5410 295° West 461 531 30,000  Level FlightAware
07:33AM 61.3900 -0.7870 295° West 459 528 30,000  Level FlightAware
07:33AM 61.4260 -0.9530 294° West 459 528 30,000  Level FlightAware
07:35AM 61.5290 -1.4310 294° West 461 531 30,000  Level FlightAware
07:36AM 61.5710 -1.6310 294° West 466 536 30,000  Level FlightAware
07:37AM 61.6260 -1.8950 294° West 470 541 30,000  Level FlightAware
07:38AM 61.6740 -2.1280 294° West 471 542 30,000 300 Level FlightAware
07:40AM 61.7860 -2.6780 273° West 474 545 31,000 300 Climbing FlightAware
07:41AM 61.6868 -2.6776 273° West  Level Estimated
07:41AM 61.8240 -2.8700 293° West 470 541 31,000  Level FlightAware
07:42AM 61.8510 -3.0120 292° West 470 541 31,000  Level FlightAware
07:42AM 61.8770 -3.1470 292° West 470 541 31,000  Level FlightAware
07:43AM 61.9020 -3.2780 292° West 470 541 31,000  Level FlightAware
07:44AM 61.9350 -3.4520 292° West 470 541 31,000  Level FlightAware
07:44AM 61.9690 -3.6350 292° West 470 541 31,000  Level FlightAware
07:45AM 62.0030 -3.8100 293° West 470 541 31,000  Level FlightAware
07:46AM 62.0570 -4.0840 293° West 463 533 31,000  Level FlightAware
07:47AM 62.0870 -4.2510 291° West 462 532 31,000  Level FlightAware
07:47AM 62.1110 -4.3820 291° West 462 532 31,000  Level FlightAware
07:48AM 62.1260 -4.4690 290° West 462 532 31,000  Level FlightAware
07:48AM 62.1500 -4.5990 292° West 462 532 31,000  Level FlightAware
07:49AM 62.1890 -4.8170 291° West 462 532 31,000  Level FlightAware
07:50AM 62.2130 -4.9520 291° West 462 532 31,000  Level FlightAware
07:50AM 62.2350 -5.0760 291° West 462 532 31,000  Level FlightAware
07:51AM 62.3050 -5.4670 291° West 461 531 31,000  Level FlightAware
07:52AM 62.3430 -5.6800 291° West 458 527 31,000  Level FlightAware
07:53AM 62.3710 -5.8490 290° West 457 526 31,000  Level FlightAware
07:53AM 62.3940 -5.9810 291° West 456 525 31,000  Level FlightAware
07:54AM 62.4160 -6.1120 290° West 456 525 31,000  Level FlightAware
07:54AM 62.4470 -6.3000 290° West 453 521 31,000  Level FlightAware
07:56AM 62.4950 -6.5940 290° West 449 517 31,000  Level FlightAware
07:56AM 62.5080 -6.6750 289° West 449 517 31,000  Level FlightAware
07:57AM 62.5440 -6.8960 290° West 449 517 31,000  Level FlightAware
07:58AM 62.5650 -7.0300 289° West 449 517 31,000  Level FlightAware
07:58AM 62.5910 -7.1970 289° West 449 517 31,000  Level FlightAware
08:02AM 62.5775 -7.9604 268° West  Level Estimated
08:03AM 62.5724 -8.2014 267° West  Level Estimated
08:04AM 62.5669 -8.4422 267° West  Level Estimated
08:05AM 62.5610 -8.6830 267° West  Level Estimated
08:05AM 62.6740 -7.7190 267° West 448 516 31,000  Level FlightAware
08:06AM 62.5546 -8.9236 267° West  Level Estimated
08:08AM 62.6607 -8.3474 268° West  Level Estimated
08:09AM 62.6548 -8.5889 267° West  Level Estimated
08:09AM 63.0110 -10.0780 267° West 438 504 31,000  Level FlightAware
08:10AM 62.6485 -8.8303 267° West  Level Estimated
08:10AM 63.0350 -10.2490 287° West 435 501 31,000  Level FlightAware
08:10AM 63.0530 -10.3840 286° West 434 499 31,000  Level FlightAware
08:11AM 63.0580 -10.4230 286° West 434 499 31,000  Level FlightAware
08:12AM 63.0900 -10.6590 287° West 431 496 31,000  Level FlightAware
08:12AM 63.1110 -10.8190 286° West 431 496 31,000  Level FlightAware
08:13AM 63.1300 -10.9560 287° West 430 495 31,000  Level FlightAware
08:13AM 63.1510 -11.1220 286° West 428 493 31,000  Level FlightAware
08:14AM 63.1690 -11.2570 287° West 427 491 31,000  Level FlightAware
08:14AM 63.1860 -11.3900 286° West 426 490 31,000  Level FlightAware
08:15AM 63.2050 -11.5420 286° West 426 490 31,000  Level FlightAware
08:16AM 63.2240 -11.6870 286° West 427 491 31,000  Level FlightAware
08:17AM 63.2550 -11.9390 285° West 427 491 31,000  Level FlightAware
08:17AM 63.2710 -12.0720 285° West 427 491 31,000  Level FlightAware
08:18AM 63.3000 -12.3080 285° West 426 490 31,000  Level FlightAware
08:19AM 63.3160 -12.4440 285° West 425 489 31,000  Level FlightAware
08:19AM 63.3350 -12.5970 286° West 424 488 31,000  Level FlightAware
08:20AM 63.3520 -12.7470 284° West 423 487 31,000  Level FlightAware
08:21AM 63.3790 -12.9820 284° West 421 484 31,000  Level FlightAware
08:21AM 63.3910 -13.0820 285° West 420 483 31,000  Level FlightAware
08:22AM 63.4050 -13.2080 284° West 418 481 31,000  Level FlightAware
08:22AM 63.4230 -13.3680 284° West 416 479 31,000  Level FlightAware
08:23AM 63.4380 -13.4990 284° West 415 478 31,000  Level FlightAware
08:23AM 63.4530 -13.6390 284° West 413 475 31,000  Level FlightAware
08:24AM 63.4680 -13.7710 284° West 412 474 31,000  Level FlightAware
08:24AM 63.4820 -13.9040 283° West 410 472 31,000  Level FlightAware
08:25AM 63.4980 -14.0500 284° West 408 470 31,000  Level FlightAware
08:26AM 63.5140 -14.1970 284° West 405 466 31,000  Level FlightAware
08:27AM 63.5390 -14.4410 283° West 401 461 31,000  Level FlightAware
08:27AM 63.5520 -14.5630 284° West 400 460 31,000  Level FlightAware
08:28AM 63.5640 -14.6820 283° West 399 459 31,000  Level FlightAware
08:28AM 63.5770 -14.8140 283° West 401 461 31,000  Level FlightAware
08:29AM 63.5940 -14.9750 283° West 401 461 31,000  Level FlightAware
08:30AM 63.6160 -15.2030 282° West 404 465 31,000  Level FlightAware
08:31AM 63.6410 -15.4560 283° West 407 468 31,000  Level FlightAware
08:31AM 63.6500 -15.5570 281° West 409 471 31,000  Level FlightAware
08:32AM 63.6640 -15.7050 282° West 411 473 31,000  Level FlightAware
08:32AM 63.6800 -15.8740 282° West 412 474 31,000  Level FlightAware
08:33AM 63.7030 -16.1260 282° West 415 478 31,000  Level FlightAware
08:34AM 63.7120 -16.2270 281° West 416 479 31,000  Level FlightAware
08:34AM 63.7230 -16.3490 282° West 416 479 31,000  Level FlightAware
08:35AM 63.7350 -16.4820 282° West 416 479 31,000  Level FlightAware
08:35AM 63.7470 -16.6190 281° West 416 479 31,000  Level FlightAware
08:36AM 63.7600 -16.7730 281° West 416 479 31,000  Level FlightAware
08:37AM 63.7720 -16.9040 282° West 415 478 31,000  Level FlightAware
08:38AM 63.7950 -17.1790 281° West 414 476 31,000  Level FlightAware
08:38AM 63.8100 -17.3670 280° West 412 474 31,000  Level FlightAware
08:39AM 63.8290 -17.5980 281° West 411 473 31,000  Level FlightAware
08:40AM 63.8490 -17.8500 280° West 411 473 31,000  Level FlightAware
08:41AM 63.8700 -18.1200 280° West 411 473 31,000  Level FlightAware
08:43AM 63.8940 -18.4400 280° West 410 472 31,000  Level FlightAware
08:43AM 63.9030 -18.5670 279° West 411 473 31,000  Level FlightAware
08:44AM 63.9130 -18.7030 280° West 411 473 31,000  Level FlightAware
08:44AM 63.9260 -18.8880 279° West 411 473 31,000  Level FlightAware
08:45AM 63.9370 -19.0450 279° West 412 474 31,000  Level FlightAware
08:46AM 63.9470 -19.1900 279° West 411 473 31,000  Level FlightAware
08:46AM 63.9570 -19.3430 279° West 412 474 31,000  Level FlightAware
08:47AM 63.9660 -19.4730 279° West 412 474 31,000  Level FlightAware
08:47AM 63.9770 -19.6450 278° West 413 475 31,000  Level FlightAware
08:48AM 63.9870 -19.7950 279° West 414 476 31,000  Level FlightAware
08:49AM 63.9980 -19.9620 279° West 413 475 31,000  Level FlightAware
08:49AM 64.0160 -20.1190 285° West 410 472 31,000  Level FlightAware
08:50AM 64.0340 -20.2520 287° West 410 472 31,000  Level FlightAware
08:50AM 64.0550 -20.4030 288° West 411 473 31,000  Level FlightAware
08:51AM 64.0750 -20.5500 287° West 412 474 31,000  Level FlightAware
08:52AM 64.0950 -20.7000 287° West 411 473 31,000  Level FlightAware
08:52AM 64.1150 -20.8480 287° West 411 473 31,000  Level FlightAware
08:53AM 64.1310 -20.9730 286° West 412 474 31,000  Level FlightAware
08:53AM 64.1490 -21.1140 286° West 412 474 31,000  Level FlightAware
08:54AM 64.1680 -21.2560 287° West 411 473 31,000  Level FlightAware
08:54AM 64.1890 -21.4230 286° West 412 474 31,000  Level FlightAware
08:55AM 64.2110 -21.5980 286° West 412 474 31,000  Level FlightAware
08:56AM 64.2310 -21.7580 286° West 413 475 31,000  Level FlightAware
08:56AM 64.2510 -21.9130 287° West 412 474 31,000  Level FlightAware
08:58AM 64.2860 -22.2080 285° West 413 475 31,000  Level FlightAware
08:58AM 64.3030 -22.3430 286° West 412 474 31,000  Level FlightAware
08:59AM 64.3440 -22.6870 286° West 414 476 31,000  Level FlightAware
09:00AM 64.3620 -22.8430 285° West 415 478 31,000  Level FlightAware
09:01AM 64.3810 -23.0130 285° West 414 476 31,000  Level FlightAware
09:01AM 64.4050 -23.2260 285° West 414 476 31,000  Level FlightAware
09:02AM 64.4270 -23.4160 285° West 415 478 31,000  Level FlightAware
09:03AM 64.4480 -23.6040 285° West 414 476 31,000  Level FlightAware
09:04AM 64.4670 -23.7840 284° West 415 478 31,000  Level FlightAware
09:04AM 64.4880 -23.9730 285° West 415 478 31,000  Level FlightAware
09:05AM 64.5060 -24.1460 284° West 414 476 31,000  Level FlightAware
09:06AM 64.5240 -24.3160 284° West 414 476 31,000  Level FlightAware
09:06AM 64.5420 -24.4910 284° West 415 478 31,000  Level FlightAware
09:07AM 64.5620 -24.6780 284° West 414 476 31,000  Level FlightAware
09:08AM 64.5790 -24.8520 283° West 415 478 31,000  Level FlightAware
09:09AM 64.6030 -25.0880 283° West 415 478 31,000  Level FlightAware
09:09AM 64.6180 -25.2390 283° West 415 478 31,000  Level FlightAware
09:10AM 64.6350 -25.4160 283° West 416 479 31,000  Level FlightAware
09:11AM 64.6520 -25.5970 282° West 416 479 31,000  Level FlightAware
09:11AM 64.6710 -25.7970 283° West 416 479 31,000  Level FlightAware
09:12AM 64.6910 -26.0080 283° West 416 479 31,000  Level FlightAware
09:13AM 64.7080 -26.2040 282° West 415 478 31,000  Level FlightAware
09:14AM 64.7270 -26.4140 282° West 416 479 31,000  Level FlightAware
09:15AM 64.7490 -26.6560 282° West 417 480 31,000  Level FlightAware
09:15AM 64.7660 -26.8540 281° West 417 480 31,000  Level FlightAware
09:16AM 64.7820 -27.0430 281° West 417 480 31,000  Level FlightAware
09:17AM 64.7940 -27.1900 281° West 418 481 31,000  Level FlightAware
09:17AM 64.8080 -27.3640 281° West 419 482 31,000  Level FlightAware
09:18AM 64.8220 -27.5290 281° West 419 482 31,000  Level FlightAware
09:19AM 64.8390 -27.7360 281° West 420 483 31,000  Level FlightAware
09:19AM 64.8520 -27.9080 280° West 420 483 31,000  Level FlightAware
09:20AM 64.8710 -28.1490 281° West 421 484 31,000  Level FlightAware
09:21AM 64.8800 -28.2760 280° West 421 484 31,000  Level FlightAware
09:22AM 64.8940 -28.4610 280° West 421 484 31,000  Level FlightAware
09:22AM 64.9140 -28.7300 280° West 423 487 31,000  Level FlightAware
09:23AM 64.9300 -28.9620 279° West 423 487 31,000  Level FlightAware
09:24AM 64.9370 -29.0480 281° West 424 488 31,000  Level FlightAware
09:24AM 64.9530 -29.2930 279° West 425 489 31,000  Level FlightAware
09:25AM 64.9650 -29.4560 280° West 426 490 31,000  Level FlightAware
09:26AM 64.9820 -29.7130 279° West 426 490 31,000  Level FlightAware
09:27AM 64.9920 -29.8670 279° West 427 491 31,000  Level FlightAware
09:27AM 64.9940 -29.8990 278° West 427 491 31,000  Level FlightAware
09:28AM 65.0060 -30.1040 278° West 427 491 31,000  Level FlightAware
09:28AM 65.0420 -30.3110 292° West 434 499 31,000  Level FlightAware
09:29AM 65.0620 -30.4620 288° West 434 499 31,000  Level FlightAware
09:30AM 65.0860 -30.6480 287° West 434 499 31,000  Level FlightAware
09:30AM 65.1040 -30.7910 287° West 434 499 31,000  Level FlightAware
09:31AM 65.1280 -30.9770 287° West 434 499 31,000  Level FlightAware
09:31AM 65.1400 -31.0710 287° West 434 499 31,000  Level FlightAware
09:32AM 65.1650 -31.2690 287° West 434 499 31,000  Level FlightAware
09:33AM 65.1830 -31.4090 287° West 434 499 31,000  Level FlightAware
09:34AM 65.2020 -31.5530 288° West 434 499 31,000  Level FlightAware
09:34AM 65.2250 -31.7360 287° West 434 499 31,000  Level FlightAware
09:35AM 65.2430 -31.8760 287° West 434 499 31,000  Level FlightAware
09:36AM 65.2610 -32.0160 287° West 434 499 31,000  Level FlightAware
09:37AM 65.2910 -32.2500 287° West 434 499 31,000  Level FlightAware
09:37AM 65.3090 -32.3910 287° West 434 499 31,000  Level FlightAware
09:38AM 65.3270 -32.5360 287° West 434 499 31,000  Level FlightAware
09:38AM 65.3390 -32.6300 287° West 434 499 31,000  Level FlightAware
09:42AM 65.1592 -33.4183 242° Southwest  Level Estimated
09:43AM 65.1053 -33.6493 241° Southwest  Level Estimated
09:44AM 65.0510 -33.8793 241° Southwest  Level Estimated
09:45AM 64.9963 -34.1083 241° Southwest  Level Estimated
09:46AM 64.9413 -34.3365 240° Southwest  Level Estimated
09:47AM 64.8860 -34.5636 240° Southwest  Level Estimated
09:48AM 64.8303 -34.7899 240° Southwest  Level Estimated
09:49AM 64.7743 -35.0152 240° Southwest  Level Estimated
09:50AM 64.7179 -35.2396 240° Southwest  Level Estimated
09:51AM 64.6612 -35.4631 239° Southwest  Level Estimated
09:52AM 64.6042 -35.6856 239° Southwest  Level Estimated
09:53AM 64.5469 -35.9071 239° Southwest  Level Estimated
09:54AM 64.4892 -36.1278 239° Southwest  Level Estimated
09:55AM 64.4311 -36.3475 239° Southwest  Level Estimated
09:56AM 64.3728 -36.5663 238° Southwest  Level Estimated
09:57AM 64.3141 -36.7841 238° Southwest  Level Estimated
09:58AM 64.2551 -37.0010 238° Southwest  Level Estimated
09:59AM 64.1958 -37.2170 238° Southwest  Level Estimated
10:00AM 64.1361 -37.4321 238° Southwest  Level Estimated
10:01AM 64.0762 -37.6463 237° Southwest  Level Estimated
10:02AM 64.0159 -37.8595 237° Southwest  Level Estimated
10:03AM 63.9553 -38.0718 237° Southwest  Level Estimated
10:04AM 63.8944 -38.2832 237° Southwest  Level Estimated
10:05AM 63.8332 -38.4937 237° Southwest  Level Estimated
10:06AM 63.7718 -38.7032 236° Southwest  Level Estimated
10:07AM 63.7099 -38.9118 236° Southwest  Level Estimated
10:08AM 63.6479 -39.1196 236° Southwest  Level Estimated
10:09AM 63.5854 -39.3264 236° Southwest  Level Estimated
10:10AM 63.5228 -39.5323 236° Southwest  Level Estimated
10:11AM 63.4598 -39.7373 236° Southwest  Level Estimated
10:12AM 63.3965 -39.9414 235° Southwest  Level Estimated
10:13AM 63.3329 -40.1446 235° Southwest  Level Estimated
10:14AM 63.2691 -40.3469 235° Southwest  Level Estimated
10:15AM 63.2049 -40.5483 235° Southwest  Level Estimated
10:16AM 63.1405 -40.7489 235° Southwest  Level Estimated
10:17AM 63.0758 -40.9485 234° Southwest  Level Estimated
10:18AM 63.0108 -41.1472 234° Southwest  Level Estimated
10:19AM 62.9455 -41.3451 234° Southwest  Level Estimated
10:20AM 62.8800 -41.5420 234° Southwest  Level Estimated
10:21AM 62.8141 -41.7381 234° Southwest  Level Estimated
10:22AM 62.7481 -41.9334 234° Southwest  Level Estimated
10:23AM 62.6817 -42.1277 233° Southwest  Level Estimated
10:24AM 62.6151 -42.3212 233° Southwest  Level Estimated
10:25AM 62.5482 -42.5138 233° Southwest  Level Estimated
10:26AM 62.4810 -42.7055 233° Southwest  Level Estimated
10:27AM 62.4136 -42.8964 233° Southwest  Level Estimated
10:28AM 62.3459 -43.0864 233° Southwest  Level Estimated
10:29AM 62.2780 -43.2756 232° Southwest  Level Estimated
10:30AM 62.2098 -43.4638 232° Southwest  Level Estimated
10:31AM 62.1413 -43.6513 232° Southwest  Level Estimated
10:32AM 62.0727 -43.8379 232° Southwest  Level Estimated
10:33AM 62.0037 -44.0237 232° Southwest  Level Estimated
10:34AM 61.9345 -44.2086 232° Southwest  Level Estimated
10:35AM 61.8651 -44.3927 231° Southwest  Level Estimated
10:36AM 61.7954 -44.5759 231° Southwest  Level Estimated
10:37AM 61.7254 -44.7584 231° Southwest  Level Estimated
10:38AM 61.6553 -44.9399 231° Southwest  Level Estimated
10:39AM 61.5849 -45.1207 231° Southwest  Level Estimated
10:40AM 61.5142 -45.3007 231° Southwest  Level Estimated
10:41AM 61.4433 -45.4798 230° Southwest  Level Estimated
10:42AM 61.3722 -45.6581 230° Southwest  Level Estimated
10:43AM 61.3009 -45.8356 230° Southwest  Level Estimated
10:44AM 61.2293 -46.0123 230° Southwest  Level Estimated
10:45AM 61.1575 -46.1882 230° Southwest  Level Estimated
10:46AM 61.0854 -46.3633 230° Southwest  Level Estimated
10:46AM 64.6970 -51.8770 229° Southwest 424 488 31,000  Level FlightAware
10:47AM 61.0132 -46.5376 229° Southwest  Level Estimated
10:47AM 64.6530 -52.1300 248° West 425 489 31,000  Level FlightAware
10:48AM 60.9407 -46.7111 229° Southwest  Level Estimated
10:48AM 64.6230 -52.3040 248° West 423 487 31,000  Level FlightAware
10:49AM 64.5900 -52.4930 248° West 424 488 31,000  Level FlightAware
10:49AM 64.5670 -52.6230 248° West 423 487 31,000  Level FlightAware
10:50AM 64.5430 -52.7550 247° West 423 487 31,000  Level FlightAware
10:51AM 64.4950 -53.0220 247° West 423 487 31,000  Level FlightAware
10:51AM 64.4710 -53.1500 247° West 423 487 31,000  Level FlightAware
10:52AM 64.4550 -53.2350 246° West 423 487 31,000  Level FlightAware
10:52AM 64.4310 -53.3670 247° West 423 487 31,000  Level FlightAware
10:53AM 64.4080 -53.4940 247° West 423 487 31,000  Level FlightAware
10:54AM 64.3840 -53.6250 247° West 423 487 31,000  Level FlightAware
10:54AM 64.3530 -53.7950 247° West 423 487 31,000  Level FlightAware
10:55AM 64.3300 -53.9190 247° West 423 487 31,000  Level FlightAware
10:56AM 64.3060 -54.0500 247° West 423 487 31,000  Level FlightAware
10:57AM 64.2670 -54.2580 247° West 423 487 31,000  Level FlightAware
10:57AM 64.2520 -54.3420 248° West 423 487 31,000  Level FlightAware
10:58AM 64.2210 -54.5080 247° West 423 487 31,000  Level FlightAware
10:59AM 64.1900 -54.6770 247° West 423 487 31,000  Level FlightAware
10:59AM 64.1820 -54.7190 246° West 423 487 31,000  Level FlightAware
11:00AM 64.0833 -55.1833 217° Southwest 410 472 31,000  Level Gander Center
11:01AM 64.0500 -55.4167 252° West 420 483 31,000  Level Gander Center
11:02AM 63.9469 -55.1242 217° Southwest  Level Estimated
11:02AM 64.0000 -55.6667 246° West 420 483 31,000  Level Gander Center
11:03AM 63.8579 -55.2753 217° Southwest  Level Estimated
11:03AM 63.9500 -55.9000 244° Southwest 420 483 31,000  Level Gander Center
11:04AM 63.7688 -55.4255 217° Southwest  Level Estimated
11:04AM 63.9000 -56.1667 247° West 420 483 31,000  Level Gander Center
11:05AM 63.6795 -55.5747 217° Southwest  Level Estimated
11:05AM 63.8500 -56.4000 244° Southwest 420 483 31,000  Level Gander Center
11:06AM 63.8000 -56.6333 244° Southwest 420 483 31,000  Level Gander Center
11:07AM 63.7500 -56.8667 244° Southwest 420 483 31,000  Level Gander Center
11:08AM 63.6833 -57.1000 237° Southwest 430 495 31,000  Level Gander Center
11:09AM 63.6500 -57.3333 252° West 430 495 31,000  Level Gander Center
11:10AM 63.5833 -57.5667 237° Southwest 430 495 31,000  Level Gander Center
11:11AM 63.5167 -57.7667 233° Southwest 420 483 31,000  Level Gander Center
11:12AM 63.4167 -57.8833 208° Southwest 430 495 31,000  Level Montreal Center
11:13AM 63.3500 -58.0833 233° Southwest 430 495 31,000  Level Montreal Center
11:14AM 63.2667 -58.2833 227° Southwest 430 495 31,000  Level Montreal Center
11:15AM 63.2000 -58.4333 225° Southwest 410 472 31,000  Level Montreal Center
11:16AM 63.1167 -58.7500 240° Southwest 420 483 31,000  Level Gander Center
11:17AM 63.0333 -58.9500 227° Southwest 440 506 31,000  Level Gander Center
11:18AM 62.9500 -59.1333 225° Southwest 420 483 31,000  Level Gander Center
11:19AM 62.8667 -59.3167 225° Southwest 410 472 31,000  Level Gander Center
11:20AM 62.8000 -59.5000 232° Southwest 420 483 31,000  Level Gander Center
11:21AM 62.7000 -59.7333 227° Southwest 430 495 31,000  Level Gander Center
11:22AM 62.6333 -59.8833 226° Southwest 420 483 31,000  Level Gander Center
11:24AM 62.4826 -60.1246 217° Southwest  Level FlightAware Approximate
11:25AM 62.3833 -60.4167 217° Southwest 280 322 31,000  Level Gander Center
11:26AM 62.3000 -60.6333 230° Southwest 430 495 31,000  Level Gander Center
11:27AM 62.2167 -60.8167 226° Southwest 430 495 31,000  Level Gander Center
11:28AM 62.1500 -60.9667 226° Southwest 430 495 31,000  Level Gander Center
11:30AM 62.0000 -61.3167 228° Southwest 310 357 31,000  Level Gander Center
11:31AM 61.9167 -61.5333 231° Southwest 460 529 31,000  Level Gander Center
11:32AM 61.8333 -61.6667 217° Southwest 450 518 31,000  Level Gander Center
11:33AM 61.7333 -61.8000 212° Southwest 850 978 31,000  Level Montreal Center
11:34AM 61.6500 -61.9667 224° Southwest 590 679 31,000  Level Montreal Center
11:35AM 61.5667 -62.1500 226° Southwest 480 552 31,000  Level Montreal Center
11:36AM 61.4833 -62.3333 226° Southwest 450 518 31,000  Level Montreal Center
11:37AM 61.4000 -62.5167 227° Southwest 440 506 31,000  Level Montreal Center
11:38AM 61.3167 -62.6500 218° Southwest 430 495 31,000  Level Montreal Center
11:39AM 61.2333 -62.8333 227° Southwest 430 495 31,000  Level Montreal Center
11:40AM 61.1500 -63.0500 231° Southwest 440 506 31,000  Level Montreal Center
11:41AM 61.0667 -63.2167 224° Southwest 430 495 31,000  Level Montreal Center
11:42AM 60.9667 -63.4000 222° Southwest 430 495 31,000  Level Montreal Center
11:43AM 60.8667 -63.5667 219° Southwest 430 495 31,000  Level Montreal Center
11:44AM 60.7833 -63.7500 227° Southwest 440 506 31,000  Level Montreal Center
11:45AM 60.7000 -63.9167 224° Southwest 440 506 31,100 360 Climbing Montreal Center
11:47AM 60.5039 -64.2641 221° Southwest  Level FlightAware Approximate
11:51AM 60.1333 -65.0167 221° Southwest 440 506 34,000  Level Gander Center
11:52AM 60.0833 -65.0500 198° South 440 506 34,000  Level Montreal Center
11:53AM 60.0000 -65.2167 225° Southwest 450 518 34,000  Level Montreal Center
11:54AM 59.8420 -65.4743 223° Southwest  Level FlightAware Approximate
11:54AM 59.9000 -65.4167 225° Southwest 450 518 34,000  Level Montreal Center
11:55AM 59.7470 -65.6442 222° Southwest  Level FlightAware Approximate
11:55AM 59.8000 -65.5833 220° Southwest 450 518 34,000  Level Montreal Center
11:56AM 59.6517 -65.8132 222° Southwest  Level FlightAware Approximate
11:56AM 59.7167 -65.7500 225° Southwest 450 518 34,000  Level Montreal Center
11:57AM 59.5563 -65.9812 222° Southwest  Level FlightAware Approximate
11:57AM 59.6000 -65.9000 213° Southwest 450 518 34,000  Level Montreal Center
11:58AM 59.4606 -66.1482 222° Southwest  Level FlightAware Approximate
11:58AM 59.5167 -66.0667 225° Southwest 440 506 34,000  Level Montreal Center
11:59AM 59.3647 -66.3143 221° Southwest  Level FlightAware Approximate
11:59AM 59.4333 -66.2333 226° Southwest 440 506 34,000  Level Montreal Center
12:00PM 59.2686 -66.4795 221° Southwest  Level FlightAware Approximate
12:00PM 59.3333 -66.3833 217° Southwest 440 506 34,000  Level Montreal Center
12:01PM 59.1723 -66.6437 221° Southwest  Level FlightAware Approximate
12:01PM 59.2500 -66.5500 226° Southwest 440 506 34,000  Level Montreal Center
12:02PM 59.1500 -66.7000 218° Southwest 440 506 34,000  Level Montreal Center
12:03PM 59.0667 -66.8500 223° Southwest 440 506 34,000  Level Montreal Center
12:04PM 58.9833 -67.0167 226° Southwest 440 506 34,000  Level Montreal Center
12:05PM 58.8667 -67.1667 214° Southwest 440 506 34,000  Level Montreal Center
12:06PM 58.7833 -67.3167 223° Southwest 440 506 34,000  Level Montreal Center
12:07PM 58.6833 -67.4667 218° Southwest 440 506 34,000  Level Montreal Center
12:08PM 58.6000 -67.6167 223° Southwest 440 506 34,000  Level Montreal Center
12:09PM 58.4833 -67.7833 217° Southwest 440 506 34,000  Level Montreal Center
12:10PM 58.4000 -67.9333 223° Southwest 440 506 34,000  Level Montreal Center
12:11PM 58.3000 -68.0833 218° Southwest 440 506 34,000  Level Montreal Center
12:12PM 58.2000 -68.2333 218° Southwest 450 518 34,000  Level Montreal Center
12:13PM 58.0500 -68.5000 223° Southwest 470 541 34,000  Level Gander Center
12:14PM 57.9500 -68.6500 219° Southwest 460 529 34,000  Level Gander Center
12:15PM 57.8500 -68.7833 215° Southwest 450 518 34,000  Level Gander Center
12:16PM 57.7500 -68.9500 222° Southwest 450 518 34,000  Level Gander Center
12:17PM 57.6333 -69.0833 211° Southwest 450 518 34,000  Level Gander Center
12:18PM 57.5500 -69.2167 221° Southwest 450 518 34,000  Level Gander Center
12:19PM 57.4333 -69.3500 212° Southwest 450 518 34,000  Level Gander Center
12:20PM 57.3500 -69.4833 221° Southwest 450 518 34,000  Level Gander Center
12:21PM 57.2333 -69.6167 212° Southwest 450 518 34,000  Level Gander Center
12:22PM 57.1500 -69.7500 221° Southwest 450 518 34,000  Level Gander Center
12:23PM 57.0333 -69.8833 212° Southwest 450 518 34,000  Level Gander Center
12:24PM 56.9333 -70.0167 216° Southwest 450 518 34,000  Level Gander Center
12:25PM 56.8333 -70.1500 216° Southwest 450 518 34,000  Level Gander Center
12:26PM 56.7167 -70.2667 209° Southwest 450 518 34,000  Level Gander Center
12:27PM 56.6333 -70.4000 221° Southwest 450 518 34,000  Level Gander Center
12:28PM 56.5167 -70.5333 212° Southwest 450 518 34,000  Level Gander Center
12:29PM 56.4333 -70.6333 214° Southwest 450 518 34,000  Level Gander Center
12:30PM 56.3167 -70.7833 216° Southwest 450 518 34,000  Level Gander Center
12:31PM 56.2000 -70.9000 209° Southwest 450 518 34,000  Level Gander Center
12:32PM 56.1167 -71.0333 222° Southwest 450 518 34,000  Level Gander Center
12:33PM 56.0000 -71.1667 213° Southwest 440 506 34,000  Level Gander Center
12:34PM 55.9000 -71.2833 213° Southwest 440 506 34,000  Level Gander Center
12:35PM 55.8000 -71.3833 209° Southwest 440 506 34,000  Level Gander Center
12:36PM 55.7000 -71.5000 213° Southwest 440 506 34,000  Level Gander Center
12:37PM 55.6000 -71.6167 213° Southwest 430 495 34,000  Level Gander Center
12:38PM 55.5000 -71.7500 217° Southwest 440 506 34,000  Level Gander Center
12:39PM 55.4000 -71.8667 214° Southwest 440 506 34,000  Level Gander Center
12:40PM 55.3000 -71.9833 214° Southwest 440 506 34,000  Level Gander Center
12:41PM 55.2000 -72.0833 210° Southwest 440 506 34,000  Level Gander Center
12:42PM 55.0833 -72.2000 210° Southwest 440 506 34,000  Level Gander Center
12:43PM 54.9833 -72.3500 221° Southwest 440 506 34,000  Level Gander Center
12:44PM 54.8833 -72.4667 214° Southwest 440 506 34,000  Level Gander Center
12:45PM 54.7833 -72.5833 214° Southwest 440 506 34,000  Level Gander Center
12:46PM 54.6833 -72.6667 206° Southwest 440 506 34,000  Level Gander Center
12:47PM 54.5833 -72.8000 218° Southwest 440 506 34,000  Level Gander Center
12:48PM 54.4667 -72.9000 206° Southwest 440 506 34,000  Level Gander Center
12:49PM 54.3667 -73.0167 214° Southwest 440 506 34,000  Level Gander Center
12:50PM 54.2667 -73.1333 214° Southwest 440 506 34,000  Level Gander Center
12:51PM 54.1667 -73.2500 214° Southwest 440 506 34,000  Level Gander Center
12:52PM 54.0500 -73.3667 210° Southwest 440 506 34,000  Level Gander Center
12:53PM 53.9500 -73.4833 214° Southwest 440 506 34,000  Level Gander Center
12:54PM 53.8667 -73.5667 211° Southwest 440 506 34,000  Level Gander Center
12:55PM 53.7500 -73.7000 214° Southwest 440 506 34,000  Level Gander Center
12:56PM 53.6333 -73.7833 203° Southwest 440 506 34,000  Level Gander Center
12:57PM 53.5333 -73.9000 215° Southwest 440 506 34,000  Level Gander Center
12:58PM 53.4167 -73.9833 203° Southwest 450 518 34,000  Level Gander Center
12:59PM 53.3000 -74.0833 207° Southwest 450 518 34,000  Level Gander Center
01:00PM 53.2000 -74.1667 207° Southwest 440 506 34,000  Level Gander Center
01:01PM 53.0833 -74.2500 203° Southwest 450 518 34,000  Level Gander Center
01:02PM 52.9667 -74.3500 207° Southwest 450 518 34,000  Level Gander Center
01:03PM 52.8833 -74.4333 211° Southwest 440 506 34,000  Level Gander Center
01:04PM 52.7667 -74.5333 207° Southwest 440 506 34,000  Level Gander Center
01:05PM 52.6500 -74.6167 203° Southwest 440 506 34,000  Level Gander Center
01:06PM 52.5500 -74.7000 207° Southwest 440 506 34,000  Level Gander Center
01:07PM 52.4333 -74.8000 208° Southwest 440 506 34,000  Level Gander Center
01:08PM 52.3167 -74.8833 204° Southwest 440 506 34,000  Level Gander Center
01:09PM 52.2000 -74.9833 208° Southwest 440 506 34,000  Level Gander Center
01:10PM 52.1000 -75.0500 202° Southwest 440 506 34,000  Level Gander Center
01:11PM 51.9833 -75.1667 212° Southwest 450 518 34,000  Level Gander Center
01:12PM 51.8667 -75.2333 199° South 440 506 34,000  Level Gander Center
01:13PM 51.7667 -75.3167 207° Southwest 440 506 34,000  Level Gander Center
01:15PM 51.6000 -75.4000 197° South 440 506 34,000  Level Montreal Center
01:16PM 51.5000 -75.4833 207° Southwest 440 506 34,000  Level Montreal Center
01:17PM 51.3833 -75.5667 204° Southwest 440 506 34,000  Level Montreal Center
01:18PM 51.2667 -75.6500 204° Southwest 440 506 34,000  Level Montreal Center
01:19PM 51.1500 -75.7167 200° South 440 506 34,000  Level Montreal Center
01:20PM 51.0500 -75.8000 208° Southwest 440 506 34,000  Level Montreal Center
01:21PM 50.9333 -75.9167 212° Southwest 440 506 34,000  Level Montreal Center
01:22PM 50.8167 -76.0000 204° Southwest 440 506 34,000  Level Montreal Center
01:23PM 50.7000 -76.0667 200° South 440 506 34,000  Level Montreal Center
01:24PM 50.6000 -76.1500 208° Southwest 440 506 34,000  Level Montreal Center
01:25PM 50.4833 -76.2333 204° Southwest 440 506 34,000  Level Montreal Center
01:26PM 50.3833 -76.3167 208° Southwest 440 506 34,000  Level Montreal Center
01:27PM 50.2667 -76.3833 200° South 440 506 34,000  Level Montreal Center
01:28PM 50.1500 -76.4667 205° Southwest 440 506 34,000  Level Montreal Center
01:29PM 50.0333 -76.5500 205° Southwest 440 506 34,000  Level Montreal Center
01:30PM 49.9167 -76.6167 200° South 440 506 34,000  Level Montreal Center
01:31PM 49.8167 -76.7000 208° Southwest 440 506 34,000  Level Montreal Center
01:32PM 49.7000 -76.8000 209° Southwest 440 506 34,000  Level Montreal Center
01:33PM 49.5833 -76.8667 200° South 440 506 34,000  Level Montreal Center
01:34PM 49.4833 -76.9500 208° Southwest 430 495 34,000  Level Montreal Center
01:35PM 49.3667 -77.0167 200° South 470 541 34,000  Level Montreal Center
01:36PM 49.2500 -77.1000 205° Southwest 430 495 34,000  Level Montreal Center
01:37PM 49.1333 -77.1667 201° Southwest 450 518 34,000  Level Montreal Center
01:38PM 49.0333 -77.2500 209° Southwest 450 518 34,000  Level Montreal Center
01:39PM 48.9000 -77.3167 198° South 450 518 34,000  Level Montreal Center
01:40PM 48.7833 -77.4167 209° Southwest 450 518 34,000  Level Montreal Center
01:41PM 48.6667 -77.5000 205° Southwest 460 529 34,000  Level Montreal Center
01:46PM 48.0810 -77.8770 205° Southwest 34,000  Level FlightAware
01:47PM 47.9440 -77.9550 201° Southwest 464 534 34,000  Level FlightAware
01:47PM 47.9010 -77.9790 201° Southwest 464 534 34,000  Level FlightAware
01:48PM 47.8440 -78.0120 201° Southwest 464 534 34,000  Level FlightAware
01:49PM 47.7650 -78.0570 201° Southwest 464 534 34,000  Level FlightAware
01:50PM 47.5950 -78.1580 202° Southwest 461 531 34,000  Level FlightAware
01:51PM 47.4850 -78.2220 201° Southwest 460 529 34,000  Level FlightAware
01:52PM 47.3270 -78.3120 201° Southwest 461 531 34,000  Level FlightAware
01:53PM 47.2020 -78.3830 201° Southwest 461 531 34,000  Level FlightAware
01:54PM 47.1320 -78.4220 201° Southwest 463 533 34,000  Level FlightAware
01:54PM 47.0580 -78.4640 201° Southwest 464 534 34,000  Level FlightAware
01:55PM 46.9790 -78.5080 201° Southwest 466 536 34,000  Level FlightAware
01:56PM 46.8900 -78.5580 201° Southwest 467 537 34,000  Level FlightAware
01:56PM 46.8180 -78.5980 201° Southwest 468 539 34,000  Level FlightAware
01:57PM 46.7400 -78.6420 201° Southwest 470 541 34,000  Level FlightAware
01:58PM 46.6480 -78.6930 201° Southwest 472 543 34,000  Level FlightAware
01:58PM 46.5700 -78.7360 201° Southwest 473 544 34,000  Level FlightAware
01:59PM 46.4800 -78.7850 201° Southwest 474 545 34,000  Level FlightAware
01:59PM 46.4290 -78.8140 201° Southwest 473 544 34,000  Level FlightAware
02:00PM 46.3410 -78.8620 201° Southwest 474 545 34,000  Level FlightAware
02:01PM 46.2670 -78.9030 201° Southwest 474 545 34,000  Level FlightAware
02:01PM 46.1810 -78.9500 201° Southwest 473 544 34,000  Level FlightAware
02:02PM 46.0980 -78.9950 201° Southwest 474 545 34,000  Level FlightAware
02:03PM 46.0330 -79.0300 200° South 473 544 34,000  Level FlightAware
02:03PM 45.9670 -79.0650 200° South 474 545 34,000  Level FlightAware
02:04PM 45.8890 -79.1070 201° Southwest 474 545 34,000  Level FlightAware
02:04PM 45.8080 -79.1510 201° Southwest 474 545 34,000  Level FlightAware
02:05PM 45.7210 -79.1970 200° South 476 548 34,000  Level FlightAware
02:06PM 45.6380 -79.2410 200° South 476 548 34,000  Level FlightAware
02:06PM 45.5610 -79.2830 201° Southwest 476 548 34,000  Level FlightAware
02:07PM 45.4830 -79.3240 200° South 475 547 34,000  Level FlightAware
02:08PM 45.3990 -79.3680 200° South 475 547 34,000  Level FlightAware
02:08PM 45.3260 -79.4070 201° Southwest 476 548 34,000  Level FlightAware
02:09PM 45.2230 -79.4610 200° South 476 548 34,000  Level FlightAware
02:10PM 45.1470 -79.5010 200° South 476 548 34,000  Level FlightAware
02:10PM 45.0620 -79.5450 200° South 476 548 34,000  Level FlightAware
02:11PM 44.9730 -79.5910 200° South 476 548 34,000  Level FlightAware
02:12PM 44.9100 -79.6240 200° South 477 549 34,000  Level FlightAware
02:12PM 44.8410 -79.6600 200° South 478 550 34,000  Level FlightAware
02:13PM 44.7720 -79.6950 200° South 478 550 34,000  Level FlightAware
02:13PM 44.6950 -79.7350 200° South 479 551 34,000  Level FlightAware
02:14PM 44.6170 -79.7750 200° South 478 550 34,000  Level FlightAware
02:15PM 44.5490 -79.8230 207° Southwest 465 535 34,000  Level FlightAware
02:16PM 44.4240 -79.9350 213° Southwest 464 534 34,000  Level FlightAware
02:16PM 44.3610 -79.9920 213° Southwest 464 534 34,000  Level FlightAware
02:17PM 44.2890 -80.0570 213° Southwest 465 535 34,000  Level FlightAware
02:18PM 44.2290 -80.1110 213° Southwest 463 533 34,000  Level FlightAware
02:18PM 44.1580 -80.1740 212° Southwest 464 534 34,000  Level FlightAware
02:19PM 44.0840 -80.2400 213° Southwest 464 534 34,000  Level FlightAware
02:20PM 44.0230 -80.2940 212° Southwest 463 533 34,000  Level FlightAware
02:20PM 43.9230 -80.3820 212° Southwest 461 531 34,000  Level FlightAware
02:21PM 43.8450 -80.4510 213° Southwest 459 528 34,000  Level FlightAware
02:22PM 43.7890 -80.5000 212° Southwest 458 527 34,000  Level FlightAware
02:22PM 43.7350 -80.5470 212° Southwest 458 527 34,000  Level FlightAware
02:23PM 43.6600 -80.6130 212° Southwest 457 526 34,000  Level FlightAware
02:23PM 43.5940 -80.6700 212° Southwest 456 525 34,000  Level FlightAware
02:24PM 43.5240 -80.7310 212° Southwest 455 524 34,000  Level FlightAware
02:25PM 43.4400 -80.8040 212° Southwest 454 522 34,000  Level FlightAware
02:25PM 43.3820 -80.8540 212° Southwest 453 521 34,000  Level FlightAware
02:26PM 43.3120 -80.9140 212° Southwest 452 520 34,000  Level FlightAware
02:27PM 43.2350 -80.9800 212° Southwest 451 519 34,000  Level FlightAware
02:27PM 43.1850 -81.0230 212° Southwest 450 518 34,000  Level FlightAware
02:28PM 43.1170 -81.0820 212° Southwest 450 518 34,000  Level FlightAware
02:29PM 42.9940 -81.1760 209° Southwest 457 526 34,000  Level FlightAware
02:30PM 42.8830 -81.2450 204° Southwest 458 527 34,000  Level FlightAware
02:31PM 42.7530 -81.3240 204° Southwest 456 525 34,000  Level FlightAware
02:32PM 42.6490 -81.3890 205° Southwest 457 526 34,000  Level FlightAware
02:33PM 42.5810 -81.4300 204° Southwest 457 526 34,000 540 Level FlightAware
02:34PM 42.4350 -81.5190 204° Southwest 444 511 35,100 900 Climbing FlightAware
02:35PM 42.3290 -81.5830 204° Southwest 426 490 36,000 540 Climbing FlightAware
02:36PM 42.2580 -81.6260 204° Southwest 434 499 36,000  Level FlightAware
02:36PM 42.2110 -81.6550 205° Southwest 435 501 36,000  Level FlightAware
02:37PM 42.1470 -81.6940 204° Southwest 438 504 36,000  Level FlightAware
02:37PM 42.0940 -81.7250 203° Southwest 438 504 36,000  Level FlightAware
02:38PM 42.0030 -81.7800 204° Southwest 437 503 36,000  Level FlightAware
02:39PM 41.9120 -81.8340 204° Southwest 436 502 36,000  Level FlightAware
02:39PM 41.8620 -81.8640 204° Southwest 436 502 36,000  Level FlightAware
02:40PM 41.7690 -81.9200 204° Southwest 435 501 36,000  Level FlightAware
02:41PM 41.6960 -81.9620 203° Southwest 435 501 36,000  Level FlightAware
02:41PM 41.6350 -81.9990 204° Southwest 434 499 36,000  Level FlightAware
02:42PM 41.5680 -82.0380 204° Southwest 435 501 36,000  Level FlightAware
02:42PM 41.5060 -82.0750 204° Southwest 436 502 36,000  Level FlightAware
02:43PM 41.4380 -82.1150 204° Southwest 436 502 36,000  Level FlightAware
02:44PM 41.3050 -82.1810 200° South 447 514 36,000  Level FlightAware
02:45PM 41.2480 -82.2020 195° South 449 517 36,000  Level FlightAware
02:45PM 41.1700 -82.2300 195° South 449 517 36,000  Level FlightAware
02:46PM 41.0890 -82.2580 195° South 448 516 36,000  Level FlightAware
02:46PM 41.0230 -82.2820 195° South 447 514 36,000  Level FlightAware
02:47PM 40.9380 -82.3120 195° South 447 514 36,000  Level FlightAware
02:48PM 40.8750 -82.3340 195° South 446 513 36,000  Level FlightAware
02:48PM 40.7910 -82.3640 195° South 445 512 36,000  Level FlightAware
02:49PM 40.6870 -82.4010 195° South 445 512 36,000  Level FlightAware
02:50PM 40.6360 -82.4190 195° South 445 512 36,000  Level FlightAware
02:50PM 40.5740 -82.4410 195° South 446 513 36,000  Level FlightAware
02:51PM 40.4990 -82.4670 195° South 446 513 36,000  Level FlightAware
02:52PM 40.4220 -82.4940 195° South 446 513 36,000  Level FlightAware
02:52PM 40.3490 -82.5190 195° South 447 514 36,000  Level FlightAware
02:53PM 40.2900 -82.5400 195° South 446 513 36,000  Level FlightAware
02:53PM 40.2250 -82.5620 194° South 446 513 36,000  Level FlightAware
02:54PM 40.1690 -82.5810 195° South 450 518 36,000  Level FlightAware
02:54PM 40.0900 -82.5930 187° South 460 529 36,000  Level FlightAware
02:55PM 39.9580 -82.6020 183° South 462 532 36,000  Level FlightAware
02:56PM 39.8940 -82.6060 183° South 461 531 36,000  Level FlightAware
02:56PM 39.8330 -82.6100 183° South 461 531 36,000  Level FlightAware
02:57PM 39.7350 -82.6160 183° South 462 532 36,000  Level FlightAware
02:58PM 39.6490 -82.6220 183° South 462 532 36,000  Level FlightAware
02:58PM 39.5550 -82.6280 183° South 461 531 36,000  Level FlightAware
02:59PM 39.4890 -82.6330 183° South 460 529 36,000  Level FlightAware
03:00PM 39.4020 -82.6390 183° South 460 529 36,000  Level FlightAware
03:00PM 39.3270 -82.6440 183° South 460 529 36,000  Level FlightAware
03:01PM 39.2510 -82.6490 183° South 460 529 36,000  Level FlightAware
03:01PM 39.1840 -82.6530 183° South 461 531 36,000  Level FlightAware
03:02PM 39.1140 -82.6580 183° South 460 529 36,000  Level FlightAware
03:03PM 39.0270 -82.6640 183° South 460 529 36,000  Level FlightAware
03:03PM 38.9690 -82.6680 183° South 459 528 36,000  Level FlightAware
03:04PM 38.8850 -82.6730 183° South 459 528 36,000  Level FlightAware
03:04PM 38.8070 -82.6780 183° South 459 528 36,000  Level FlightAware
03:05PM 38.7200 -82.6840 183° South 459 528 36,000  Level FlightAware
03:06PM 38.5920 -82.6920 183° South 459 528 36,000  Level FlightAware
03:07PM 38.4880 -82.6990 183° South 460 529 36,000  Level FlightAware
03:07PM 38.4060 -82.7040 183° South 460 529 36,000  Level FlightAware
03:08PM 38.3510 -82.7080 183° South 459 528 36,000  Level FlightAware
03:09PM 38.2670 -82.7130 183° South 459 528 36,000  Level FlightAware
03:09PM 38.1940 -82.7180 183° South 457 526 36,000  Level FlightAware
03:10PM 38.1240 -82.7230 183° South 456 525 36,000  Level FlightAware
03:10PM 38.0520 -82.7270 183° South 454 522 36,000  Level FlightAware
03:10PM 38.0190 -82.7290 183° South 454 522 36,000  Level FlightAware
03:12PM 37.8870 -82.7380 183° South 452 520 36,000  Level FlightAware
03:12PM 37.7930 -82.7440 183° South 450 518 36,000  Level FlightAware
03:13PM 37.7075 -82.7557 186° South 446 513 36,000  Level FlightAware ADS-B
03:14PM 37.6130 -82.7937 198° South 439 505 36,000  Level FlightAware ADS-B
03:14PM 37.6005 -82.8014 206° Southwest 424 488 36,000  Level FlightAware ADS-B
03:14PM 37.5407 -82.8407 208° Southwest 424 488 36,000  Level FlightAware ADS-B
03:15PM 37.4843 -82.8786 208° Southwest 423 487 36,000  Level FlightAware ADS-B
03:16PM 37.4126 -82.9262 208° Southwest 423 487 36,000  Level FlightAware ADS-B
03:16PM 37.3563 -82.9631 208° Southwest 422 486 36,000  Level FlightAware ADS-B
03:17PM 37.3031 -82.9980 208° Southwest 422 486 36,000  Level FlightAware ADS-B
03:17PM 37.2498 -83.0327 207° Southwest 423 487 36,000  Level FlightAware ADS-B
03:18PM 37.1977 -83.0667 207° Southwest 423 487 36,000  Level FlightAware ADS-B
03:18PM 37.1438 -83.1018 207° Southwest 423 487 36,000  Level FlightAware ADS-B
03:19PM 37.0854 -83.1399 207° Southwest 425 489 36,000  Level FlightAware ADS-B
03:19PM 37.0294 -83.1763 207° Southwest 425 489 36,000  Level FlightAware ADS-B
03:20PM 36.9760 -83.2109 207° Southwest 426 490 36,000  Level FlightAware ADS-B
03:20PM 36.9227 -83.2455 207° Southwest 426 490 36,000  Level FlightAware ADS-B
03:21PM 36.8692 -83.2800 207° Southwest 426 490 36,000  Level FlightAware ADS-B
03:21PM 36.8163 -83.3142 207° Southwest 427 491 36,000  Level FlightAware ADS-B
03:22PM 36.7622 -83.3491 207° Southwest 428 493 36,000  Level FlightAware ADS-B
03:22PM 36.7091 -83.3833 207° Southwest 428 493 36,000  Level FlightAware ADS-B
03:23PM 36.6533 -83.4191 207° Southwest 429 494 36,000  Level FlightAware ADS-B
03:23PM 36.5998 -83.4534 207° Southwest 430 495 36,000  Level FlightAware ADS-B
03:24PM 36.5441 -83.4891 207° Southwest 432 497 36,000  Level FlightAware ADS-B
03:25PM 36.4906 -83.5234 207° Southwest 433 498 36,000  Level FlightAware ADS-B
03:25PM 36.4351 -83.5589 207° Southwest 433 498 36,000  Level FlightAware ADS-B
03:26PM 36.3802 -83.5939 207° Southwest 434 499 36,000  Level FlightAware ADS-B
03:26PM 36.3261 -83.6283 207° Southwest 435 501 36,000  Level FlightAware ADS-B
03:27PM 36.2693 -83.6644 207° Southwest 435 501 36,000  Level FlightAware ADS-B
03:27PM 36.2120 -83.7008 207° Southwest 435 501 36,000  Level FlightAware ADS-B
03:28PM 36.1546 -83.7370 207° Southwest 436 502 36,000  Level FlightAware ADS-B
03:28PM 36.0948 -83.7749 207° Southwest 437 503 36,000  Level FlightAware ADS-B
03:29PM 36.0341 -83.8132 207° Southwest 437 503 36,000  Level FlightAware ADS-B
03:29PM 35.9778 -83.8488 207° Southwest 438 504 36,000  Level FlightAware ADS-B
03:30PM 35.9344 -83.8758 207° Southwest 439 505 36,000  Level FlightAware ADS-B
03:30PM 35.9084 -83.8890 202° Southwest 446 513 36,000  Level FlightAware ADS-B
03:30PM 35.8687 -83.9032 196° South 453 521 36,000  Level FlightAware ADS-B
03:31PM 35.8044 -83.9199 192° South 456 525 36,000  Level FlightAware ADS-B
03:31PM 35.7408 -83.9350 191° South 457 526 36,000  Level FlightAware ADS-B
03:32PM 35.6774 -83.9500 191° South 457 526 36,000  Level FlightAware ADS-B
03:32PM 35.6135 -83.9653 191° South 457 526 36,000  Level FlightAware ADS-B
03:33PM 35.5500 -83.9807 191° South 457 526 36,000  Level FlightAware ADS-B
03:33PM 35.4731 -83.9992 191° South 457 526 36,000  Level FlightAware ADS-B
03:34PM 35.4098 -84.0146 191° South 457 526 36,000  Level FlightAware ADS-B
03:34PM 35.3466 -84.0299 191° South 458 527 36,000  Level FlightAware ADS-B
03:35PM 35.2832 -84.0452 191° South 459 528 36,000  Level FlightAware ADS-B
03:35PM 35.2174 -84.0610 191° South 459 528 36,000  Level FlightAware ADS-B
03:36PM 35.1486 -84.0776 191° South 460 529 36,000  Level FlightAware ADS-B
03:37PM 35.0858 -84.0926 191° South 460 529 36,000  Level FlightAware ADS-B
03:37PM 35.0212 -84.1081 191° South 459 528 36,000  Level FlightAware ADS-B
03:38PM 34.8722 -84.1436 191° South 459 528 36,000  Level FlightAware ADS-B
03:39PM 34.8073 -84.1589 191° South 459 528 36,000  Level FlightAware ADS-B
03:39PM 34.7425 -84.1743 191° South 459 528 36,000  Level FlightAware ADS-B
03:40PM 34.6338 -84.2001 191° South 458 527 36,000  Level FlightAware ADS-B
03:41PM 34.5713 -84.2149 191° South 458 527 36,000  Level FlightAware ADS-B
03:41PM 34.5085 -84.2297 191° South 458 527 36,000  Level FlightAware ADS-B
03:42PM 34.4449 -84.2447 191° South 458 527 36,000  Level FlightAware ADS-B
03:42PM 34.3794 -84.2601 191° South 458 527 36,000  Level FlightAware ADS-B
03:43PM 34.3120 -84.2760 191° South 458 527 36,000  Level FlightAware
03:44PM 34.1810 -84.3070 191° South 458 527 36,000  Level FlightAware
03:45PM 34.0860 -84.3290 191° South 458 527 36,000  Level FlightAware
03:45PM 34.0360 -84.3410 191° South 458 527 36,000  Level FlightAware
03:46PM 33.9520 -84.3600 191° South 460 529 36,000  Level FlightAware
03:46PM 33.8600 -84.3820 191° South 461 531 36,000  Level FlightAware
03:47PM 33.7920 -84.3970 190° South 462 532 36,000  Level FlightAware
03:48PM 33.6860 -84.4220 191° South 455 524 36,000  Level FlightAware
03:48PM 33.6249 -84.4322 188° South 461 531 36,000  Level FlightAware ADS-B
03:49PM 33.5260 -84.4340 181° South 479 551 36,000  Level FlightAware
03:50PM 33.4490 -84.4320 179° South 480 552 36,000  Level FlightAware
03:50PM 33.3640 -84.4290 178° South 481 554 36,000  Level FlightAware
03:51PM 33.2910 -84.4280 179° South 481 554 36,000  Level FlightAware
03:51PM 33.2100 -84.4260 179° South 482 555 36,000  Level FlightAware
03:52PM 33.1360 -84.4250 179° South 482 555 36,000  Level FlightAware
03:53PM 33.0360 -84.4230 179° South 483 556 36,000  Level FlightAware
03:53PM 32.9550 -84.4210 179° South 483 556 36,000  Level FlightAware
03:54PM 32.8850 -84.4200 179° South 484 557 36,000  Level FlightAware
03:55PM 32.7970 -84.4180 179° South 485 558 36,000  Level FlightAware
03:55PM 32.7000 -84.4160 179° South 484 557 36,000  Level FlightAware
03:56PM 32.6180 -84.4140 179° South 484 557 36,000  Level FlightAware
03:56PM 32.5340 -84.4130 179° South 484 557 36,000  Level FlightAware
03:57PM 32.4940 -84.4120 179° South 484 557 36,000  Level FlightAware
03:58PM 32.3800 -84.4100 179° South 483 556 36,000  Level FlightAware
03:58PM 32.3070 -84.4080 179° South 483 556 36,000  Level FlightAware
03:59PM 32.2000 -84.4060 179° South 481 554 36,000  Level FlightAware
03:59PM 32.1240 -84.4040 179° South 480 552 36,000  Level FlightAware
04:00PM 32.0470 -84.4030 179° South 479 551 36,000  Level FlightAware
04:01PM 31.9710 -84.4010 179° South 479 551 36,000  Level FlightAware
04:01PM 31.8980 -84.4000 179° South 479 551 36,000  Level FlightAware
04:02PM 31.8200 -84.3980 179° South 479 551 36,000  Level FlightAware
04:02PM 31.7510 -84.3970 179° South 479 551 36,000  Level FlightAware
04:03PM 31.6580 -84.3950 179° South 480 552 36,000  Level FlightAware
04:04PM 31.5700 -84.3940 179° South 480 552 36,000  Level FlightAware
04:04PM 31.5070 -84.3920 178° South 480 552 36,000  Level FlightAware
04:05PM 31.4300 -84.3910 179° South 480 552 36,000  Level FlightAware
04:06PM 31.2770 -84.3610 170° South 494 568 36,000 240 Level FlightAware
04:06PM 31.2180 -84.3280 154° Southeast 491 565 36,400 900 Climbing FlightAware
04:07PM 31.1450 -84.2860 154° Southeast 487 560 37,000 300 Climbing FlightAware
04:08PM 31.0070 -84.2060 154° Southeast 486 559 37,000  Level FlightAware
04:08PM 30.9676 -84.1834 154° Southeast 484 557 37,000  Level FlightAware ADS-B (KTLH)
04:09PM 30.9014 -84.1457 154° Southeast 483 556 37,000  Level FlightAware ADS-B (KTLH)
04:09PM 30.8393 -84.1105 154° Southeast 481 554 37,000  Level FlightAware ADS-B (KTLH)
04:10PM 30.7635 -84.0676 154° Southeast 478 550 37,000  Level FlightAware ADS-B (KTLH)
04:11PM 30.7123 -84.0386 154° Southeast 477 549 37,000  Level FlightAware ADS-B (KTLH)
04:11PM 30.6215 -83.9872 154° Southeast 476 548 37,000  Level FlightAware ADS-B (KTLH)
04:12PM 30.5627 -83.9541 154° Southeast 475 547 37,000  Level FlightAware ADS-B (KTLH)
04:12PM 30.4887 -83.9124 154° Southeast 476 548 37,000  Level FlightAware ADS-B (KTLH)
04:13PM 30.4284 -83.8785 154° Southeast 476 548 37,000  Level FlightAware ADS-B (KTLH)
04:13PM 30.3647 -83.8427 154° Southeast 478 550 37,000  Level FlightAware ADS-B (KTLH)
04:14PM 30.2844 -83.7975 154° Southeast 479 551 37,000  Level FlightAware ADS-B (KTLH)
04:15PM 30.2426 -83.7741 154° Southeast 480 552 37,000  Level FlightAware ADS-B (KTLH)
04:15PM 30.2426 -83.7741 154° Southeast 481 554 37,000  Level FlightAware ADS-B (KTLH)
04:16PM 30.0360 -83.6590 154° Southeast 482 555 37,000  Level FlightAware
04:17PM 29.9570 -83.6150 154° Southeast 482 555 37,000  Level FlightAware
04:17PM 29.8930 -83.5790 154° Southeast 482 555 37,000  Level FlightAware
04:18PM 29.8200 -83.5380 154° Southeast 483 556 37,000  Level FlightAware
04:18PM 29.7570 -83.5040 155° Southeast 482 555 37,000  Level FlightAware
04:19PM 29.6880 -83.4650 154° Southeast 482 555 37,000  Level FlightAware
04:19PM 29.6280 -83.4320 154° Southeast 482 555 37,000  Level FlightAware
04:20PM 29.5570 -83.3930 154° Southeast 480 552 37,000  Level FlightAware
04:21PM 29.4980 -83.3610 155° Southeast 480 552 37,000  Level FlightAware
04:21PM 29.4150 -83.3150 154° Southeast 478 550 37,000  Level FlightAware
04:22PM 29.3450 -83.2760 154° Southeast 476 548 37,000  Level FlightAware
04:23PM 29.2600 -83.2300 155° Southeast 475 547 37,000  Level FlightAware
04:24PM 29.1440 -83.1660 154° Southeast 474 545 37,000  Level FlightAware
04:24PM 29.0740 -83.1280 155° Southeast 472 543 37,000  Level FlightAware
04:25PM 29.0100 -83.0930 154° Southeast 470 541 37,000  Level FlightAware
04:25PM 28.9340 -83.0520 155° Southeast 468 539 37,000  Level FlightAware
04:26PM 28.8120 -82.9850 154° Southeast 464 534 37,000  Level FlightAware
04:27PM 28.7240 -82.9380 155° Southeast 462 532 37,000  Level FlightAware
04:28PM 28.6300 -82.8870 155° Southeast 460 529 37,000  Level FlightAware
04:29PM 28.5520 -82.8450 155° Southeast 460 529 37,000  Level FlightAware
04:30PM 28.4430 -82.7860 155° Southeast 460 529 37,000  Level FlightAware
04:30PM 28.3530 -82.7370 154° Southeast 457 526 37,000  Level FlightAware
04:31PM 28.2890 -82.7030 155° Southeast 454 522 37,000  Level FlightAware
04:31PM 28.2210 -82.6670 155° Southeast 452 520 37,000  Level FlightAware
04:32PM 28.1470 -82.6270 155° Southeast 451 519 37,000  Level FlightAware
04:33PM 28.0850 -82.5940 155° Southeast 449 517 37,000  Level FlightAware
04:34PM 27.9640 -82.5290 155° Southeast 447 514 37,000  Level FlightAware
04:34PM 27.9030 -82.4970 155° Southeast 445 512 37,000  Level FlightAware
04:35PM 27.8340 -82.4600 155° Southeast 445 512 37,000  Level FlightAware
04:35PM 27.7720 -82.4270 155° Southeast 443 510 37,000  Level FlightAware
04:36PM 27.7170 -82.3980 155° Southeast 443 510 37,000  Level FlightAware
04:36PM 27.6610 -82.3680 155° Southeast 442 509 37,000  Level FlightAware
04:37PM 27.6110 -82.3420 155° Southeast 443 510 37,000  Level FlightAware
04:38PM 27.5350 -82.3010 154° Southeast 442 509 37,000  Level FlightAware
04:39PM 27.4330 -82.2480 155° Southeast 441 507 37,000  Level FlightAware
04:39PM 27.3890 -82.2250 155° Southeast 442 509 37,000  Level FlightAware
04:40PM 27.3050 -82.1800 155° Southeast 441 507 37,000  Level FlightAware
04:41PM 27.1930 -82.1450 164° South 438 504 37,000  Level FlightAware
04:41PM 27.1350 -82.1510 185° South 437 503 37,000  Level FlightAware
04:42PM 27.0670 -82.1590 186° South 437 503 37,000  Level FlightAware
04:43PM 26.9330 -82.1760 186° South 436 502 37,000  Level FlightAware
04:44PM 26.8400 -82.1870 186° South 435 501 37,000  Level FlightAware
04:44PM 26.7570 -82.1970 186° South 434 499 37,000  Level FlightAware
04:45PM 26.6830 -82.2060 186° South 434 499 37,000  Level FlightAware
04:45PM 26.6090 -82.2140 186° South 434 499 37,000  Level FlightAware
04:46PM 26.5360 -82.2230 186° South 435 501 37,000  Level FlightAware
04:47PM 26.4080 -82.2380 186° South 438 504 37,000  Level FlightAware
04:48PM 26.2930 -82.2520 186° South 442 509 37,000  Level FlightAware
04:49PM 26.1870 -82.2650 186° South 444 511 37,000  Level FlightAware
04:49PM 26.1300 -82.2710 185° South 446 513 37,000  Level FlightAware
04:50PM 26.0710 -82.2780 186° South 448 516 37,000  Level FlightAware
04:51PM 25.9500 -82.2930 186° South 452 520 37,000  Level FlightAware
04:52PM 25.8370 -82.3060 186° South 455 524 37,000  Level FlightAware
04:52PM 25.7650 -82.3140 186° South 456 525 37,000  Level FlightAware
04:53PM 25.6970 -82.3220 186° South 456 525 37,000  Level FlightAware
04:53PM 25.6230 -82.3310 186° South 457 526 37,000 -120 Level FlightAware
04:54PM 25.5030 -82.3450 186° South 452 520 36,900 -420 Descending FlightAware
04:55PM 25.4510 -82.3510 186° South 448 516 36,500 -1,200 Descending FlightAware
04:56PM 25.3260 -82.3660 186° South 441 507 35,200 -1,200 Descending FlightAware
04:57PM 25.2440 -82.3750 186° South 432 497 34,500 -1,080 Descending FlightAware
04:57PM 25.1790 -82.3830 186° South 425 489 33,900 -1,140 Descending FlightAware
04:58PM 25.1130 -82.3910 186° South 419 482 33,300 -1,080 Descending FlightAware
04:59PM 25.0110 -82.4020 186° South 408 470 32,400 -1,020 Descending FlightAware
04:59PM 24.9510 -82.4090 186° South 400 460 31,900 -1,080 Descending FlightAware
05:00PM 24.8280 -82.4230 186° South 393 452 30,700 -1,200 Descending FlightAware
05:01PM 24.7360 -82.4340 186° South 395 455 29,600 -900 Descending FlightAware
05:01PM 24.6960 -82.4390 186° South 395 455 29,600 -1,260 Level FlightAware
05:02PM 24.6220 -82.4470 186° South 396 456 28,300 -1,440 Descending FlightAware
05:03PM 24.5280 -82.4580 186° South 391 450 27,500 -840 Descending FlightAware
05:04PM 24.4590 -82.4660 186° South 381 438 27,100 -420 Descending FlightAware
05:04PM 24.4070 -82.4710 185° South 380 437 27,000 -120 Descending FlightAware
05:05PM 24.3720 -82.4750 186° South 380 437 27,000  Level FlightAware
05:06PM 24.2670 -82.4850 185° South 380 437 27,000  Level FlightAware
05:06PM 24.2320 -82.4880 184° South 380 437 27,000  Level FlightAware
05:07PM 24.1440 -82.4970 185° South 380 437 27,000  Level FlightAware
05:08PM 24.0900 -82.5020 185° South 380 437 27,000  Level FlightAware
05:14PM 23.3603 -82.4333 180° South  Level FlightAware Approximate
05:15PM 23.2339 -82.4191 173° South  Level FlightAware Approximate
05:16PM 23.1073 -82.4115 170° South  Level FlightAware Approximate
05:17PM 22.9891 -82.4091 180° South  Level Estimated
05:18PM 22.9891 -82.4091 180° South  Level Estimated
05:19PM 22.9891 -82.4091 180° South  Level Estimated
05:20PM 22.9891 -82.4091 180° South  Level Estimated
05:21PM 22.9891 -82.4091 180° South  Level Estimated
05:22PM 22.9891 -82.4091 180° South  Level Estimated
05:23PM 22.9891 -82.4091 180° South  Level Estimated
05:24PM 22.9891 -82.4091 180° South  Level Estimated
05:25PM 22.9891 -82.4091 180° South  Level Estimated
05:26PM 22.9891 -82.4091 180° South  Level Estimated
05:27PM 22.9891 -82.4091 180° South  Level Estimated
05:28PM 22.9891 -82.4091 180° South  Level Estimated
05:29PM 22.9891 -82.4091 180° South  Level Estimated
05:30PM 22.9891 -82.4091 180° South  Level Estimated
05:31PM 22.9891 -82.4091 180° South  Level Estimated
05:32PM 22.9891 -82.4091 180° South  Level Estimated
05:33PM 22.9891 -82.4091 180° South  Level Estimated
05:34PM 22.9891 -82.4091 180° South  Level Estimated
05:35PM 22.9891 -82.4091 180° South  Level Estimated
05:36PM 22.9891 -82.4091 180° South  Level Estimated
05:37PM 22.9891 -82.4091 180° South  Level Estimated
05:38PM 22.9891 -82.4091 180° South  Level Estimated
05:39PM 22.9891 -82.4091 180° South  Level Estimated